Capt. Bob — WBJ3355 — position and weather

sailwx.info

Track history (hours):
 
Tides and Currents Weather Stations Pressure Air Temp Water Temp Dewpoint Dewpoint Depression Visibility Wind Speed Wind Dir Waves Ship Positions

Capt. Bob

Owner: BURCAW, ROBERT L, CAPE MAY COURT HOUSE, NJ. More information available from US FCC via Universal Licensing System and Coast Guard Vessel Documentation Center.

Last reported at 2018-May-22 21:08 UTC. Time now 2018-May-25 18:36 UTC.
Position N 34°36' W 076°43'.

Length 24 m.

Type: Fishing. MMSI: 338381000.

Date/timePositionNaut miles runAvg speedWind from/ knotsBaromVisibWave heightAir tempDewpointWater temp
2018-May-22 21:08N 34°36' W 076°43'1 7.2
2018-May-22 21:01N 34°37' W 076°42'4 7.3
2018-May-22 20:31N 34°40' W 076°40'3 6.1
2018-May-22 20:01N 34°43' W 076°40'0 0.5
2018-May-22 19:30N 34°43' W 076°40'0 0.0
2018-May-22 19:00N 34°43' W 076°40'0 0.0
2018-May-22 18:30N 34°43' W 076°40'0 0.0
2018-May-22 18:00N 34°43' W 076°40'0 0.0
2018-May-22 17:30N 34°43' W 076°40'0 0.0
2018-May-22 17:00N 34°43' W 076°40'0 0.0
2018-May-22 16:30N 34°43' W 076°40'0 0.0
2018-May-22 16:00N 34°43' W 076°40'0 0.0
2018-May-22 15:30N 34°43' W 076°40'1 2.7
2018-May-22 15:01N 34°42' W 076°40'4 8.4
2018-May-22 14:31N 34°38' W 076°38'5 8.4
2018-May-22 13:58N 34°35' W 076°35'  
Track history (hours):
 
Tides and Currents Weather Stations Pressure Air Temp Water Temp Dewpoint Dewpoint Depression Visibility Wind Speed Wind Dir Waves Ship Positions

Capt. Bob

Owner: BURCAW, ROBERT L, CAPE MAY COURT HOUSE, NJ. More information available from US FCC via Universal Licensing System and Coast Guard Vessel Documentation Center.

Last reported at 2018-May-22 21:08 UTC. Time now 2018-May-25 18:36 UTC.
Position N 34°36' W 076°43'.

Length 24 m.

Type: Fishing. MMSI: 338381000.

Date/timePositionNaut miles runAvg speedWind from/ knotsBaromVisibWave heightAir tempDewpointWater temp
2018-May-22 21:08N 34°36' W 076°43'1 7.2
2018-May-22 21:01N 34°37' W 076°42'4 7.3
2018-May-22 20:31N 34°40' W 076°40'3 6.1
2018-May-22 20:01N 34°43' W 076°40'0 0.5
2018-May-22 19:30N 34°43' W 076°40'0 0.0
2018-May-22 19:00N 34°43' W 076°40'0 0.0
2018-May-22 18:30N 34°43' W 076°40'0 0.0
2018-May-22 18:00N 34°43' W 076°40'0 0.0
2018-May-22 17:30N 34°43' W 076°40'0 0.0
2018-May-22 17:00N 34°43' W 076°40'0 0.0
2018-May-22 16:30N 34°43' W 076°40'0 0.0
2018-May-22 16:00N 34°43' W 076°40'0 0.0
2018-May-22 15:30N 34°43' W 076°40'1 2.7
2018-May-22 15:01N 34°42' W 076°40'4 8.4
2018-May-22 14:31N 34°38' W 076°38'5 8.4
2018-May-22 13:58N 34°35' W 076°35'  

Dump ship's entire track history